Lizarda, Brazil
Current Conditions -  °F | °C
As of 9:00 AM on Wednesday 22 Oct 2014 (Local Time) from SBPJ Reporting Station
Scattered Clouds Scattered Clouds  
Wind Chill: 79°   Ceiling: Unl
Heat Index: 81°   Visibility: 6mi
Dew Point: 68°   Wind: 6mph
Humidity: 69%   Direction: 170°S
Pressure: 29.97"   Gusts: NA
Location:  9.58°S, 46.68°W
Report Text: SBPJ 221200Z 17005KT 9999 FEW030 SCT100 26/20 Q1015
Loading
Personal Weather Stations






























Interactive Weather Map
Tropical Storm Tracking
New forecast layout! Learn more

10-Day Weather Forecast

Advertisements
Track Severe Weather on mobile